createdAt,value
2022-10-12T00:03:13.486Z,2.00
2022-10-12T00:07:15.174Z,1.70
2022-10-12T00:11:20.358Z,1.80
2022-10-12T00:15:21.993Z,2.13
2022-10-12T00:19:23.595Z,2.28
2022-10-12T00:23:25.208Z,1.80
2022-10-12T00:27:26.797Z,1.80
2022-10-12T00:31:30.407Z,1.80
2022-10-12T00:35:32.000Z,1.80
2022-10-12T00:39:33.725Z,2.30
2022-10-12T00:43:39.067Z,1.85
2022-10-12T00:47:46.760Z,1.80
2022-10-12T00:51:56.365Z,2.03
2022-10-12T00:56:04.778Z,2.38
2022-10-12T01:00:16.437Z,2.38
2022-10-12T01:04:23.902Z,1.85
2022-10-12T01:08:25.842Z,1.85
2022-10-12T01:12:28.105Z,1.73
2022-10-12T01:16:35.862Z,2.17
2022-10-12T01:21:05.880Z,1.92
2022-10-12T01:25:25.363Z,1.90
2022-10-12T01:30:07.158Z,1.90
2022-10-12T01:34:20.756Z,2.00
2022-10-12T01:38:41.952Z,1.80
2022-10-12T01:42:44.518Z,2.10
2022-10-12T01:46:47.043Z,2.05
2022-10-12T01:50:52.390Z,1.70
2022-10-12T01:54:54.101Z,1.90
2022-10-12T01:59:14.434Z,1.92
2022-10-12T02:03:34.923Z,2.05
2022-10-12T02:07:51.341Z,2.00
2022-10-12T02:11:58.444Z,2.20
2022-10-12T02:16:03.870Z,1.50
2022-10-12T02:20:09.224Z,1.90
2022-10-12T02:24:12.959Z,2.17
2022-10-12T02:28:18.415Z,1.80
2022-10-12T02:32:37.614Z,1.83
2022-10-12T02:36:49.975Z,2.25
2022-10-12T02:40:55.524Z,1.73
2022-10-12T02:44:59.881Z,1.95
2022-10-12T02:49:04.375Z,1.80
2022-10-12T02:53:07.278Z,2.15
2022-10-12T02:57:08.936Z,1.80
2022-10-12T03:01:11.794Z,1.77
2022-10-12T03:05:13.435Z,2.15
2022-10-12T03:09:15.078Z,1.80
2022-10-12T03:13:16.839Z,2.00
2022-10-12T03:17:18.419Z,1.63
2022-10-12T03:21:20.371Z,2.10
2022-10-12T03:25:22.235Z,1.80
2022-10-12T03:29:23.850Z,1.73
2022-10-12T03:33:25.767Z,2.05
2022-10-12T03:37:27.369Z,1.80
2022-10-12T03:41:29.093Z,1.90
2022-10-12T03:45:30.819Z,1.80
2022-10-12T03:49:32.420Z,2.17
2022-10-12T03:53:34.097Z,2.00
2022-10-12T03:57:35.908Z,1.75
2022-10-12T04:01:37.752Z,2.00
2022-10-12T04:05:40.002Z,2.00
2022-10-12T04:09:41.678Z,1.92
2022-10-12T04:13:43.905Z,1.80
2022-10-12T04:17:45.838Z,1.70
2022-10-12T04:21:47.488Z,1.80
2022-10-12T04:25:49.158Z,2.03
2022-10-12T04:29:50.869Z,1.85
2022-10-12T04:33:58.322Z,2.15
2022-10-12T04:37:59.987Z,1.83
2022-10-12T04:42:02.161Z,2.15
2022-10-12T04:46:03.793Z,2.00
2022-10-12T04:50:06.627Z,1.63
2022-10-12T04:54:10.294Z,2.08
2022-10-12T04:58:12.185Z,1.63
2022-10-12T05:02:13.864Z,2.40
2022-10-12T05:06:28.950Z,1.80
2022-10-12T05:10:30.638Z,2.10
2022-10-12T05:14:35.053Z,1.70
2022-10-12T05:18:37.769Z,1.80
2022-10-12T05:22:40.115Z,2.28
2022-10-12T05:26:41.777Z,1.80
2022-10-12T05:30:43.478Z,1.70
2022-10-12T05:34:45.070Z,1.80
2022-10-12T05:38:46.719Z,2.00
2022-10-12T05:42:48.366Z,1.80
2022-10-12T05:46:50.144Z,1.85
2022-10-12T05:50:54.976Z,1.90
2022-10-12T05:54:56.551Z,2.00
2022-10-12T05:58:58.166Z,2.53
2022-10-12T06:02:59.735Z,2.50
2022-10-12T06:07:01.325Z,2.20
2022-10-12T06:11:03.238Z,1.90
2022-10-12T06:15:05.276Z,2.58
2022-10-12T06:19:06.882Z,2.33
2022-10-12T06:23:08.571Z,2.10
2022-10-12T06:27:10.392Z,2.15
2022-10-12T06:31:12.136Z,2.10
2022-10-12T06:35:13.919Z,1.80
2022-10-12T06:39:15.720Z,2.33
2022-10-12T06:43:17.356Z,2.10
2022-10-12T06:47:18.956Z,1.98
2022-10-12T06:51:20.610Z,1.80
2022-10-12T06:55:22.219Z,1.98
2022-10-12T06:59:24.018Z,2.30
2022-10-12T07:03:25.609Z,2.28
2022-10-12T07:07:31.034Z,2.13
2022-10-12T07:15:51.284Z,2.17
2022-10-12T07:19:52.918Z,2.45
2022-10-12T07:23:55.021Z,2.63
2022-10-12T07:27:56.698Z,2.10
2022-10-12T07:31:59.363Z,2.70
2022-10-12T07:36:13.922Z,2.65
2022-10-12T07:40:16.715Z,2.25
2022-10-12T07:44:19.670Z,2.30
2022-10-12T07:48:22.361Z,2.83
2022-10-12T07:52:23.979Z,2.80
2022-10-12T07:56:26.647Z,2.40
2022-10-12T08:00:30.483Z,2.58
2022-10-12T08:04:32.050Z,2.30
2022-10-12T08:08:33.639Z,2.55
2022-10-12T08:12:35.248Z,2.80
2022-10-12T08:16:37.145Z,2.80
2022-10-12T08:20:39.546Z,3.25
2022-10-12T08:24:41.159Z,3.53
2022-10-12T08:28:49.740Z,2.45
2022-10-12T08:32:51.572Z,2.75
2022-10-12T08:36:53.273Z,3.10
2022-10-12T08:41:27.522Z,2.50
2022-10-12T08:45:52.223Z,2.85
2022-10-12T08:49:54.642Z,2.58
2022-10-12T08:54:07.754Z,2.17
2022-10-12T08:58:17.138Z,2.70
2022-10-12T09:02:33.795Z,2.60
2022-10-12T09:07:00.598Z,2.80
2022-10-12T09:11:26.731Z,2.90
2022-10-12T09:15:45.292Z,2.28
2022-10-12T09:19:47.801Z,2.70
2022-10-12T09:23:49.513Z,2.58
2022-10-12T09:27:51.635Z,2.60
2022-10-12T09:32:20.545Z,2.78
2022-10-12T09:36:24.424Z,2.40
2022-10-12T09:40:30.456Z,2.55
2022-10-12T09:48:36.575Z,2.25
2022-10-12T09:52:45.095Z,3.95
2022-10-12T09:56:52.492Z,2.90
2022-10-12T10:01:19.392Z,2.70
2022-10-12T10:05:36.290Z,1.80
2022-10-12T10:09:37.922Z,2.20
2022-10-12T10:13:49.920Z,2.35
2022-10-12T10:17:54.739Z,1.92
2022-10-12T10:22:04.286Z,2.13
2022-10-12T10:26:13.141Z,2.30
2022-10-12T10:30:30.089Z,2.30
2022-10-12T10:34:33.722Z,2.53
2022-10-12T10:38:59.969Z,2.65
2022-10-12T10:43:16.355Z,2.10
2022-10-12T10:51:20.078Z,2.63
2022-10-12T10:55:28.120Z,2.08
2022-10-12T10:59:51.846Z,2.63
2022-10-12T11:04:02.641Z,2.13
2022-10-12T11:08:21.211Z,1.60
2022-10-12T11:12:35.159Z,1.88
2022-10-12T11:16:38.617Z,2.15
2022-10-12T11:20:48.566Z,1.80
2022-10-12T11:24:56.277Z,1.85
2022-10-12T11:29:00.614Z,1.90
2022-10-12T11:33:11.960Z,1.45
2022-10-12T11:37:21.153Z,1.90
2022-10-12T11:46:03.612Z,1.87
2022-10-12T11:50:25.352Z,1.50
2022-10-12T11:59:32.337Z,1.83
2022-10-12T12:03:45.680Z,1.60
2022-10-12T12:07:50.649Z,1.50
2022-10-12T12:12:11.823Z,1.85
2022-10-12T12:16:13.380Z,1.65
2022-10-12T12:20:44.157Z,2.58
2022-10-12T12:25:11.745Z,4.88
2022-10-12T12:29:29.986Z,5.45
2022-10-12T12:33:35.879Z,6.47
2022-10-12T12:37:37.524Z,7.45
2022-10-12T12:41:59.204Z,8.25
2022-10-12T12:46:07.928Z,8.20
2022-10-12T12:50:35.316Z,8.23
2022-10-12T12:54:52.162Z,8.68
2022-10-12T12:59:08.302Z,8.07
2022-10-12T13:03:47.778Z,7.82
2022-10-12T13:08:06.848Z,7.35
2022-10-12T13:12:43.714Z,7.00
2022-10-12T13:21:40.353Z,7.50
2022-10-12T13:25:45.945Z,6.90
2022-10-12T13:30:03.509Z,7.00
2022-10-12T13:34:24.290Z,6.75
2022-10-12T13:38:30.239Z,7.35
2022-10-12T13:42:34.819Z,6.25
2022-10-12T13:46:46.871Z,6.78
2022-10-12T13:51:02.900Z,6.55
2022-10-12T13:55:16.553Z,5.85
2022-10-12T13:59:22.060Z,6.13
2022-10-12T14:03:40.269Z,5.75
2022-10-12T14:07:44.657Z,6.00
2022-10-12T14:11:47.551Z,5.00
2022-10-12T14:15:49.469Z,5.47
2022-10-12T14:19:53.495Z,5.45
2022-10-12T14:23:57.563Z,5.00
2022-10-12T14:28:05.582Z,4.53
2022-10-12T14:32:41.294Z,4.78
2022-10-12T14:36:43.071Z,5.55
2022-10-12T14:40:44.727Z,5.05
2022-10-12T14:44:46.479Z,4.47
2022-10-12T14:48:48.106Z,4.40
2022-10-12T14:52:55.838Z,4.40
2022-10-12T14:57:10.673Z,3.97
2022-10-12T15:01:12.634Z,4.60
2022-10-12T15:05:16.740Z,4.13
2022-10-12T15:09:18.356Z,3.85
2022-10-12T15:13:19.951Z,3.97
2022-10-12T15:17:21.567Z,3.50
2022-10-12T15:21:37.053Z,3.88
2022-10-12T15:25:50.431Z,3.67
2022-10-12T15:29:52.094Z,3.42
2022-10-12T15:33:53.835Z,2.70
2022-10-12T15:37:58.345Z,3.70
2022-10-12T15:42:00.348Z,3.33
2022-10-12T15:46:01.934Z,2.95
2022-10-12T15:50:03.785Z,2.75
2022-10-12T15:54:05.577Z,2.92
2022-10-12T15:58:07.284Z,2.72
2022-10-12T16:02:11.837Z,2.80
2022-10-12T16:06:13.895Z,2.63
2022-10-12T16:10:17.068Z,2.70
2022-10-12T16:14:18.695Z,2.65
2022-10-12T16:18:20.464Z,2.53
2022-10-12T16:22:22.086Z,2.50
2022-10-12T16:26:23.695Z,2.10
2022-10-12T16:30:26.282Z,2.40
2022-10-12T16:34:30.935Z,2.35
2022-10-12T16:38:32.506Z,2.33
2022-10-12T16:42:34.731Z,2.85
2022-10-12T16:46:39.907Z,2.20
2022-10-12T16:55:06.393Z,2.70
2022-10-12T16:59:08.030Z,2.30
2022-10-12T17:03:13.671Z,2.45
2022-10-12T17:07:15.472Z,2.10
2022-10-12T17:11:17.066Z,2.00
2022-10-12T17:15:18.807Z,2.30
2022-10-12T17:19:32.281Z,2.17
2022-10-12T17:23:33.867Z,1.90
2022-10-12T17:27:35.480Z,2.00
2022-10-12T17:31:37.465Z,1.92
2022-10-12T17:35:42.093Z,1.80
2022-10-12T17:39:46.197Z,1.80
2022-10-12T17:43:47.822Z,1.52
2022-10-12T17:47:49.398Z,2.00
2022-10-12T17:51:51.155Z,1.83
2022-10-12T17:55:54.537Z,1.50
2022-10-12T17:59:59.965Z,1.77
2022-10-12T18:04:05.531Z,1.40
2022-10-12T18:08:07.294Z,1.88
2022-10-12T18:12:08.964Z,1.67
2022-10-12T18:16:11.612Z,2.00
2022-10-12T18:20:13.377Z,1.92
2022-10-12T18:24:17.107Z,1.70
2022-10-12T18:28:18.996Z,2.47
2022-10-12T18:32:20.786Z,1.80
2022-10-12T18:36:23.023Z,2.10
2022-10-12T18:40:24.697Z,1.75
2022-10-12T18:44:26.677Z,1.98
2022-10-12T18:48:28.353Z,1.70
2022-10-12T18:52:30.135Z,1.67
2022-10-12T18:56:33.510Z,1.77
2022-10-12T19:00:35.191Z,1.50
2022-10-12T19:04:37.020Z,1.55
2022-10-12T19:08:39.085Z,1.90
2022-10-12T19:12:45.501Z,1.63
2022-10-12T19:21:16.941Z,1.67
2022-10-12T19:25:18.547Z,1.67
2022-10-12T19:29:20.183Z,1.52
2022-10-12T19:33:21.887Z,1.60
2022-10-12T19:37:23.491Z,1.75
2022-10-12T19:41:26.993Z,1.70
2022-10-12T19:45:28.802Z,1.83
2022-10-12T19:49:35.749Z,1.45
2022-10-12T19:53:40.273Z,1.85
2022-10-12T19:57:43.018Z,1.50
2022-10-12T20:01:47.960Z,1.50
2022-10-12T20:05:49.599Z,1.52
2022-10-12T20:09:51.248Z,1.60
2022-10-12T20:13:53.361Z,1.60
2022-10-12T20:17:55.043Z,1.30
2022-10-12T20:21:59.572Z,1.65
2022-10-12T20:26:06.858Z,1.90
2022-10-12T20:30:09.863Z,1.70
2022-10-12T20:34:11.578Z,1.35
2022-10-12T20:38:13.239Z,1.90
2022-10-12T20:42:19.165Z,1.50
2022-10-12T20:46:23.554Z,1.67
2022-10-12T20:50:25.163Z,1.67
2022-10-12T20:54:28.619Z,1.35
2022-10-12T20:58:30.249Z,1.77
2022-10-12T21:02:33.315Z,1.52
2022-10-12T21:06:35.071Z,1.77
2022-10-12T21:10:40.000Z,1.30
2022-10-12T21:14:41.806Z,1.53
2022-10-12T21:18:43.646Z,1.80
2022-10-12T21:22:45.923Z,1.80
2022-10-12T21:26:47.697Z,1.70
2022-10-12T21:30:50.253Z,1.23
2022-10-12T21:34:53.391Z,1.70
2022-10-12T21:38:55.123Z,1.67
2022-10-12T21:42:56.735Z,1.85
2022-10-12T21:46:58.475Z,1.88
2022-10-12T21:51:01.556Z,1.67
2022-10-12T21:55:03.422Z,1.60
2022-10-12T21:59:09.512Z,1.30
2022-10-12T22:07:12.659Z,1.77
2022-10-12T22:11:14.275Z,1.60
2022-10-12T22:15:15.988Z,1.55
2022-10-12T22:19:20.784Z,2.03
2022-10-12T22:23:22.694Z,1.63
2022-10-12T22:27:24.317Z,1.60
2022-10-12T22:31:26.252Z,1.30
2022-10-12T22:35:27.844Z,1.55
2022-10-12T22:39:29.449Z,1.65
2022-10-12T22:43:31.659Z,1.70
2022-10-12T22:47:33.269Z,1.70
2022-10-12T22:51:38.988Z,1.70
2022-10-12T22:55:41.281Z,1.40
2022-10-12T22:59:42.862Z,1.38
2022-10-12T23:03:45.828Z,1.23
2022-10-12T23:07:47.402Z,1.80
2022-10-12T23:11:50.769Z,1.35
2022-10-12T23:15:52.345Z,1.70
2022-10-12T23:19:53.955Z,1.33
2022-10-12T23:23:55.930Z,1.58
2022-10-12T23:27:57.985Z,1.30
2022-10-12T23:31:59.584Z,1.40
2022-10-12T23:36:03.603Z,1.20
2022-10-12T23:40:05.681Z,1.63
2022-10-12T23:44:07.282Z,1.48
2022-10-12T23:48:08.910Z,1.60
2022-10-12T23:52:10.478Z,1.50
2022-10-12T23:56:13.085Z,1.25
